Time;durP1;ratioP1;P1;durP2;ratioP2;P2;SDS_P1;SDS_P2;PMS_P1;PMS_P2;Temp;Humidity;BMP_temperature;BMP_pressure;BME280_temperature;BME280_humidity;BME280_pressure;Samples;Min_cycle;Max_cycle;Signal;HPM_P1;HPM_P2
2022/12/12 00:00:12;;;;;;;72.13;28.37;;;;;;;-0.76;100.00;101097.81;10581317;27;20067;-72
2022/12/12 00:05:14;;;;;;;66.17;28.30;;;;;;;-0.90;100.00;101088.53;10565069;28;20039;-73
2022/12/12 00:10:15;;;;;;;66.77;29.20;;;;;;;-0.79;100.00;101108.94;10565355;28;20042;-73
2022/12/12 00:15:15;;;;;;;80.03;30.97;;;;;;;-0.78;100.00;101114.19;10580610;27;20038;-73
2022/12/12 00:20:16;;;;;;;71.07;27.90;;;;;;;-0.79;100.00;101114.34;10564834;27;20042;-73
2022/12/12 00:25:16;;;;;;;59.40;25.73;;;;;;;-0.85;100.00;101099.66;10581861;27;20476;-73
2022/12/12 00:30:17;;;;;;;69.47;28.33;;;;;;;-0.78;100.00;101111.47;10580857;27;20096;-73
2022/12/12 00:35:17;;;;;;;74.77;29.53;;;;;;;-0.80;100.00;101108.13;10564209;27;20040;-73
2022/12/12 00:40:18;;;;;;;67.80;30.20;;;;;;;-0.85;100.00;101099.66;10580738;27;20392;-71
2022/12/12 00:45:18;;;;;;;68.80;29.30;;;;;;;-0.86;100.00;101098.81;10581052;27;20568;-73
2022/12/12 00:50:19;;;;;;;66.83;28.10;;;;;;;-0.83;100.00;101111.16;10579309;28;20251;-72
2022/12/12 00:55:20;;;;;;;59.47;26.57;;;;;;;-0.84;100.00;101109.47;10563472;27;20061;-73
2022/12/12 01:00:21;;;;;;;68.57;28.23;;;;;;;-0.90;100.00;101104.75;10579402;28;20044;-73
2022/12/12 01:05:21;;;;;;;69.07;29.43;;;;;;;-0.81;100.00;101130.75;10580226;27;20035;-73
2022/12/12 01:10:22;;;;;;;72.13;30.70;;;;;;;-0.81;100.00;101114.50;10580828;28;20048;-73
2022/12/12 01:15:22;;;;;;;58.60;26.23;;;;;;;-0.94;100.00;101109.66;10579584;28;20046;-73
2022/12/12 01:20:24;;;;;;;61.50;27.17;;;;;;;-0.86;100.00;101133.13;10563281;28;20035;-73
2022/12/12 01:25:25;;;;;;;63.00;26.83;;;;;;;-0.98;100.00;101115.59;10568912;27;20042;-73
2022/12/12 01:30:26;;;;;;;63.00;27.37;;;;;;;-0.87;100.00;101136.84;10595886;27;20036;-71
2022/12/12 01:35:26;;;;;;;61.83;25.90;;;;;;;-0.91;100.00;101135.50;10577439;27;20032;-73
2022/12/12 01:40:28;;;;;;;58.97;26.60;;;;;;;-0.84;100.00;101145.44;10576865;27;20036;-72
2022/12/12 01:45:56;;;;;;;61.27;26.37;;;;;;;-0.82;100.00;101145.28;10592893;27;20036;-73
2022/12/12 01:50:58;;;;;;;62.13;27.40;;;;;;;-0.88;100.00;101132.47;10576502;27;20039;-73
2022/12/12 01:55:58;;;;;;;61.53;26.77;;;;;;;-0.85;100.00;101142.91;10575645;27;20036;-73
2022/12/12 02:01:00;;;;;;;67.80;27.07;;;;;;;-0.87;100.00;101148.50;10592726;27;20461;-73
2022/12/12 02:06:02;;;;;;;64.00;27.97;;;;;;;-0.87;100.00;101153.91;10559877;27;20036;-73
2022/12/12 02:11:03;;;;;;;64.07;25.77;;;;;;;-0.88;100.00;101146.81;10575845;27;20043;-73
2022/12/12 02:16:12;;;;;;;64.87;26.47;;;;;;;-0.85;100.00;101151.88;10556048;28;20036;-73
2022/12/12 02:21:25;;;;;;;56.33;26.83;;;;;;;-0.85;100.00;101140.22;10550909;28;20036;-73
2022/12/12 02:26:34;;;;;;;60.40;25.87;;;;;;;-0.86;100.00;101141.25;10517171;28;20040;-73
2022/12/12 02:31:51;;;;;;;64.87;26.63;;;;;;;-0.96;100.00;101132.47;10563136;28;20035;-73
2022/12/12 02:37:39;;;;;;;63.70;26.17;;;;;;;-0.94;100.00;101146.66;10564569;28;20036;-73
2022/12/12 02:42:54;;;;;;;61.80;26.87;;;;;;;-0.93;100.00;101142.94;10555709;27;20097;-73
2022/12/12 02:48:02;;;;;;;63.53;27.13;;;;;;;-1.06;100.00;101133.50;10568779;27;20040;-73
2022/12/12 02:53:04;;;;;;;66.33;26.90;;;;;;;-1.02;100.00;101145.66;10568353;27;20042;-73
2022/12/12 02:58:04;;;;;;;64.07;27.50;;;;;;;-0.95;100.00;101155.78;10567621;27;20036;-73
2022/12/12 03:08:48;;;;;;;59.93;26.83;;;;;;;-0.95;100.00;101167.44;10583522;27;20039;-73
2022/12/12 03:13:56;;;;;;;57.70;26.67;;;;;;;-1.16;100.00;101132.84;10557876;27;20032;-73
2022/12/12 03:19:15;;;;;;;59.27;26.67;;;;;;;-0.95;100.00;101177.41;10541167;27;20038;-73
2022/12/12 03:24:31;;;;;;;60.77;26.33;;;;;;;-1.05;100.00;101151.41;10575252;27;20063;-73
2022/12/12 03:29:38;;;;;;;59.10;25.17;;;;;;;-0.98;100.00;101172.34;10585651;27;20039;-73
2022/12/12 03:34:41;;;;;;;52.03;26.23;;;;;;;-0.97;100.00;101168.63;10566739;27;20061;-73
2022/12/12 03:39:56;;;;;;;58.40;25.77;;;;;;;-1.00;100.00;101160.88;10583118;27;20043;-73
2022/12/12 03:45:03;;;;;;;60.73;27.77;;;;;;;-0.95;100.00;101172.84;10566284;27;20039;-73
2022/12/12 03:50:14;;;;;;;59.73;26.93;;;;;;;-0.93;100.00;101181.63;10564732;27;20039;-73
2022/12/12 03:55:46;;;;;;;57.80;27.93;;;;;;;-0.90;100.00;101185.84;10567393;27;20043;-72
2022/12/12 04:00:47;;;;;;;60.23;26.70;;;;;;;-0.91;100.00;101184.16;10581070;27;20036;-73
2022/12/12 04:06:27;;;;;;;55.87;25.97;;;;;;;-0.98;100.00;101183.16;10548849;27;20035;-73
2022/12/12 04:16:59;;;;;;;52.53;23.00;;;;;;;-0.98;100.00;101177.75;10582753;27;20040;-73
2022/12/12 04:27:41;;;;;;;53.90;27.27;;;;;;;-1.11;100.00;101189.91;10582604;27;20057;-73
2022/12/12 04:32:44;;;;;;;52.63;28.07;;;;;;;-1.03;100.00;101199.91;10582666;27;20036;-73
2022/12/12 04:37:53;;;;;;;58.40;25.53;;;;;;;-1.15;100.00;101188.56;10582298;27;20095;-73
2022/12/12 04:42:57;;;;;;;62.37;26.70;;;;;;;-1.25;100.00;101174.41;10564258;27;20039;-73
2022/12/12 04:47:57;;;;;;;67.90;27.40;;;;;;;-1.51;100.00;101137.63;10582747;27;20040;-73
2022/12/12 04:52:58;;;;;;;72.07;29.57;;;;;;;-1.28;100.00;101182.81;10521348;28;20044;-74
2022/12/12 04:57:59;;;;;;;72.77;28.80;;;;;;;-2.02;100.00;101069.44;10521623;28;20060;-73
2022/12/12 05:03:47;;;;;;;61.47;28.67;;;;;;;-1.15;100.00;101212.88;10538469;28;20032;-73
2022/12/12 05:08:52;;;;;;;62.33;28.03;;;;;;;-1.28;100.00;101188.22;10534574;28;20104;-73
2022/12/12 05:13:52;;;;;;;65.83;27.87;;;;;;;-1.28;100.00;101194.50;10538857;28;20220;-73
2022/12/12 05:18:53;;;;;;;61.90;28.30;;;;;;;-1.39;100.00;101196.69;10562504;27;20071;-73
2022/12/12 05:23:53;;;;;;;65.63;28.13;;;;;;;-1.48;100.00;101176.94;10581843;27;20035;-73
2022/12/12 05:28:54;;;;;;;59.80;26.53;;;;;;;-1.44;100.00;101181.81;10580363;27;20040;-73
2022/12/12 05:33:54;;;;;;;65.97;26.43;;;;;;;-1.38;100.00;101203.78;10563466;27;20174;-73
2022/12/12 05:38:54;;;;;;;59.90;28.27;;;;;;;-1.46;100.00;101202.75;10545366;27;20543;-74
2022/12/12 05:43:55;;;;;;;69.30;30.43;;;;;;;-1.55;100.00;101192.97;10544084;27;20043;-74
2022/12/12 05:48:55;;;;;;;68.47;29.60;;;;;;;-1.60;100.00;101198.00;10542994;28;20040;-73
2022/12/12 05:53:56;;;;;;;70.27;30.77;;;;;;;-1.64;100.00;101183.16;10579162;28;20101;-74
2022/12/12 05:58:56;;;;;;;68.33;30.47;;;;;;;-1.73;100.00;101173.38;10579515;28;20039;-73
2022/12/12 06:03:57;;;;;;;76.70;29.47;;;;;;;-1.73;100.00;101201.19;10578699;28;20078;-74
2022/12/12 06:08:57;;;;;;;71.57;31.47;;;;;;;-1.81;100.00;101211.97;10578826;28;20057;-74
2022/12/12 06:13:58;;;;;;;71.10;29.17;;;;;;;-1.91;100.00;101206.72;10588119;27;20035;-74
2022/12/12 06:18:58;;;;;;;71.47;31.70;;;;;;;-1.91;100.00;101220.19;10550787;28;20044;-73
2022/12/12 06:23:59;;;;;;;81.93;31.67;;;;;;;-2.11;100.00;101186.41;10562068;28;20134;-74
2022/12/12 06:28:59;;;;;;;80.20;30.43;;;;;;;-2.15;100.00;101204.78;10544829;28;20036;-74
2022/12/12 06:34:00;;;;;;;80.93;31.27;;;;;;;-2.39;100.00;101189.34;10561216;28;20036;-75
2022/12/12 06:39:00;;;;;;;86.80;33.30;;;;;;;-2.44;100.00;101205.16;10526277;28;20040;-73
2022/12/12 06:44:01;;;;;;;91.83;32.57;;;;;;;-2.66;100.00;101193.09;10519391;28;20059;-74
2022/12/12 06:49:05;;;;;;;100.30;35.87;;;;;;;-2.60;100.00;101207.75;10574027;27;20036;-74
2022/12/12 06:54:06;;;;;;;84.93;32.13;;;;;;;-2.66;100.00;101234.38;10592369;27;20027;-74
2022/12/12 06:59:06;;;;;;;91.47;34.67;;;;;;;-2.74;100.00;101228.91;10585736;27;20038;-74
2022/12/12 07:04:07;;;;;;;96.07;35.83;;;;;;;-2.83;100.00;101227.19;10568846;27;20031;-74
2022/12/12 07:09:07;;;;;;;89.50;35.03;;;;;;;-2.90;100.00;101224.25;10584352;27;20071;-74
2022/12/12 07:14:08;;;;;;;93.93;32.50;;;;;;;-2.98;100.00;101224.19;10562680;28;20047;-74
2022/12/12 07:19:09;;;;;;;88.40;36.03;;;;;;;-2.97;100.00;101233.16;10584714;27;20085;-75
2022/12/12 07:24:09;;;;;;;94.33;35.97;;;;;;;-2.93;100.00;101245.31;10566929;27;20104;-74
2022/12/12 07:29:10;;;;;;;91.93;35.53;;;;;;;-2.93;100.00;101250.69;10585078;27;20043;-74
2022/12/12 07:34:10;;;;;;;105.93;36.23;;;;;;;-2.92;100.00;101253.19;10550117;27;20046;-74
2022/12/12 07:39:12;;;;;;;93.20;35.80;;;;;;;-2.88;100.00;101253.75;10584574;27;20138;-74
2022/12/12 07:44:14;;;;;;;100.00;38.87;;;;;;;-2.82;100.00;101263.91;10566298;28;20051;-74
2022/12/12 07:49:15;;;;;;;101.90;35.53;;;;;;;-2.79;100.00;101268.97;10561907;27;20063;-74
2022/12/12 07:54:17;;;;;;;109.13;40.07;;;;;;;-2.79;100.00;101252.81;10582857;27;20035;-74
2022/12/12 07:59:17;;;;;;;98.03;35.40;;;;;;;-2.71;100.00;101271.75;10549539;27;20035;-75
2022/12/12 08:04:17;;;;;;;98.50;37.63;;;;;;;-2.64;100.00;101271.94;10566152;27;20036;-74
2022/12/12 08:09:18;;;;;;;107.27;37.10;;;;;;;-2.69;100.00;101264.34;10569996;27;20040;-74
2022/12/12 08:14:19;;;;;;;94.97;38.90;;;;;;;-2.47;100.00;101280.97;10561715;27;20028;-75
2022/12/12 08:19:19;;;;;;;107.23;39.00;;;;;;;-2.42;100.00;101273.25;10598976;27;20046;-74
2022/12/12 08:24:20;;;;;;;97.27;36.83;;;;;;;-2.57;100.00;101229.03;10621361;27;20039;-72
2022/12/12 08:29:21;;;;;;;92.10;35.17;;;;;;;-2.32;100.00;101265.06;10625582;27;20035;-74
2022/12/12 08:34:21;;;;;;;99.80;37.80;;;;;;;-2.13;100.00;101288.22;10624671;27;20047;-75
2022/12/12 08:39:22;;;;;;;105.03;39.37;;;;;;;-2.10;100.00;101279.84;10607122;27;20055;-74
2022/12/12 08:44:22;;;;;;;94.13;38.80;;;;;;;-2.13;100.00;101288.22;10590633;27;20043;-74
2022/12/12 08:49:23;;;;;;;99.57;39.67;;;;;;;-2.26;100.00;101276.03;10580038;27;20031;-74
2022/12/12 08:54:24;;;;;;;98.63;37.23;;;;;;;-2.40;100.00;101273.94;10533420;28;20040;-74
2022/12/12 08:59:24;;;;;;;108.17;40.53;;;;;;;-2.48;100.00;101281.97;10489183;28;20185;-75
2022/12/12 09:04:25;;;;;;;102.93;39.73;;;;;;;-2.41;100.00;101304.63;10556943;28;20047;-75
2022/12/12 09:09:25;;;;;;;107.43;39.00;;;;;;;-2.47;100.00;101305.25;10576420;27;20058;-75
2022/12/12 09:14:26;;;;;;;114.63;40.20;;;;;;;-2.51;100.00;101299.31;10558771;28;20023;-74
2022/12/12 09:19:26;;;;;;;101.90;41.70;;;;;;;-2.83;100.00;101251.44;10547160;27;20040;-74
2022/12/12 09:24:26;;;;;;;113.73;40.60;;;;;;;-2.54;100.00;101305.03;10563194;27;20028;-74
2022/12/12 09:29:27;;;;;;;113.97;42.47;;;;;;;-2.43;100.00;101322.78;10542119;28;20032;-75
2022/12/12 09:34:27;;;;;;;102.83;40.07;;;;;;;-2.40;100.00;101325.16;10570870;28;20035;-75
2022/12/12 09:39:28;;;;;;;108.83;40.93;;;;;;;-2.39;100.00;101334.13;10581540;28;20035;-74
2022/12/12 09:44:28;;;;;;;110.80;42.43;;;;;;;-2.31;100.00;101326.09;10529788;27;20031;-74
2022/12/12 09:49:49;;;;;;;122.03;42.53;;;;;;;-2.15;100.00;101326.19;10561050;27;20066;-74
2022/12/12 09:54:49;;;;;;;109.73;42.00;;;;;;;-2.13;100.00;101328.69;10588059;27;20050;-75
2022/12/12 10:00:08;;;;;;;105.33;41.30;;;;;;;-2.04;100.00;101333.16;10566929;27;20390;-74
2022/12/12 10:05:37;;;;;;;108.90;40.30;;;;;;;-1.98;100.00;101324.41;10571222;27;20050;-75
2022/12/12 10:10:40;;;;;;;107.67;40.77;;;;;;;-1.93;100.00;101319.38;10581096;27;20503;-75
2022/12/12 10:15:43;;;;;;;116.57;43.70;;;;;;;-1.84;100.00;101315.72;10559213;28;20043;-75
2022/12/12 10:20:46;;;;;;;110.57;40.30;;;;;;;-1.80;100.00;101296.47;10559454;27;20514;-76
2022/12/12 10:25:58;;;;;;;121.63;45.40;;;;;;;-1.62;100.00;101299.91;10586154;27;20047;-76
2022/12/12 10:31:10;;;;;;;102.83;43.23;;;;;;;-1.57;100.00;101297.59;10565579;27;20040;-75
2022/12/12 10:36:33;;;;;;;96.17;38.57;;;;;;;-1.51;100.00;101318.53;10586455;27;20115;-76
2022/12/12 10:41:47;;;;;;;98.73;39.30;;;;;;;-1.46;100.00;101308.06;10584559;28;20101;-75
2022/12/12 10:47:09;;;;;;;108.97;41.07;;;;;;;-1.34;100.00;101300.50;10551653;27;20066;-75
2022/12/12 10:52:18;;;;;;;102.70;39.23;;;;;;;-1.16;100.00;101300.34;10586291;28;20035;-75
2022/12/12 10:57:26;;;;;;;99.53;37.30;;;;;;;-0.95;100.00;101296.31;10551612;27;20113;-75
2022/12/12 11:02:37;;;;;;;95.43;38.43;;;;;;;-0.72;100.00;101308.16;10570099;27;20035;-75
2022/12/12 11:07:39;;;;;;;91.40;38.70;;;;;;;-0.49;100.00;101296.66;10552446;28;20518;-75
2022/12/12 11:12:40;;;;;;;82.87;36.07;;;;;;;-0.26;100.00;101297.59;10551637;27;20031;-75
2022/12/12 11:17:40;;;;;;;81.33;37.47;;;;;;;-0.28;100.00;101277.16;10599189;27;20046;-75
2022/12/12 11:22:41;;;;;;;84.00;36.70;;;;;;;-0.09;100.00;101284.88;10605381;27;20042;-75
2022/12/12 11:27:41;;;;;;;72.60;33.13;;;;;;;-0.06;100.00;101281.81;10608597;27;20038;-74
2022/12/12 11:32:43;;;;;;;65.40;31.20;;;;;;;0.03;100.00;101285.34;10608791;27;20046;-75
2022/12/12 11:37:45;;;;;;;58.07;29.60;;;;;;;-0.05;100.00;101251.03;10608381;27;20031;-74
2022/12/12 11:42:46;;;;;;;60.63;30.13;;;;;;;0.18;100.00;101277.31;10590203;27;20031;-74
2022/12/12 11:47:46;;;;;;;55.33;26.53;;;;;;;0.25;100.00;101272.03;10619717;27;20462;-74
2022/12/12 11:52:48;;;;;;;51.47;27.90;;;;;;;0.29;100.00;101262.53;10607503;27;20032;-73
2022/12/12 11:58:19;;;;;;;48.13;24.70;;;;;;;0.38;100.00;101262.31;10604455;27;20031;-74
2022/12/12 12:03:41;;;;;;;48.27;24.77;;;;;;;0.45;100.00;101267.03;10607131;27;20031;-73
2022/12/12 12:09:01;;;;;;;39.70;21.93;;;;;;;0.51;100.00;101267.16;10623143;27;20058;-73
2022/12/12 12:14:21;;;;;;;46.27;23.20;;;;;;;0.68;100.00;101259.75;10592258;27;20031;-74
2022/12/12 12:19:30;;;;;;;42.73;22.10;;;;;;;0.75;100.00;101246.34;10606198;27;20042;-73
2022/12/12 12:24:38;;;;;;;43.33;21.60;;;;;;;0.81;100.00;101251.06;10625330;27;20064;-73
2022/12/12 12:29:55;;;;;;;42.85;21.50;;;;;;;0.97;100.00;101223.81;10573031;27;20069;-73
2022/12/12 12:35:24;;;;;;;34.10;17.93;;;;;;;1.15;100.00;101238.91;10561434;27;20038;-73
2022/12/12 12:40:24;;;;;;;35.22;18.75;;;;;;;0.97;100.00;101233.78;10561359;28;20511;-73
2022/12/12 12:45:48;;;;;;;34.97;17.80;;;;;;;1.05;100.00;101243.75;10596584;27;20031;-73
2022/12/12 12:51:05;;;;;;;36.60;19.47;;;;;;;1.23;100.00;101227.97;10605979;27;20039;-73
2022/12/12 12:56:25;;;;;;;28.20;16.17;;;;;;;1.29;100.00;101227.25;10599297;27;20047;-74
2022/12/12 13:01:47;;;;;;;33.78;16.88;;;;;;;0.88;100.00;101157.13;10603823;27;20039;-74
2022/12/12 13:07:11;;;;;;;24.90;13.87;;;;;;;1.39;100.00;101203.41;10620596;27;20045;-71
2022/12/12 13:12:34;;;;;;;25.23;13.07;;;;;;;1.53;100.00;101222.59;10577934;27;20092;-71
2022/12/12 13:17:57;;;;;;;23.60;12.07;;;;;;;1.66;100.00;101211.09;10560641;28;20093;-71
2022/12/12 13:23:23;;;;;;;24.50;13.45;;;;;;;2.25;100.00;101210.16;10562716;28;20086;-69
2022/12/12 13:28:35;;;;;;;26.80;15.38;;;;;;;2.25;100.00;101196.59;10548000;28;20124;-71
2022/12/12 13:33:42;;;;;;;26.63;13.75;;;;;;;1.95;100.00;101207.50;10555364;28;20047;-71
2022/12/12 13:38:53;;;;;;;29.02;15.10;;;;;;;1.41;100.00;101204.06;10550281;28;20040;-71
2022/12/12 13:43:57;;;;;;;24.80;13.57;;;;;;;0.94;100.00;101205.19;10532365;28;20099;-71
2022/12/12 13:49:16;;;;;;;20.98;13.48;;;;;;;0.65;100.00;101207.81;10547649;27;20063;-71
2022/12/12 13:54:16;;;;;;;20.57;12.00;;;;;;;0.40;100.00;101216.13;10576126;27;20027;-72
2022/12/12 13:59:26;;;;;;;24.57;13.43;;;;;;;0.19;100.00;101224.88;10571289;27;20127;-71
2022/12/12 14:04:42;;;;;;;22.83;13.13;;;;;;;0.02;100.00;101215.13;10574242;27;20036;-71
2022/12/12 14:09:53;;;;;;;23.13;12.50;;;;;;;-0.09;100.00;101219.06;10571529;27;20035;-71
2022/12/12 14:14:56;;;;;;;26.63;14.20;;;;;;;-0.16;100.00;101227.06;10574197;27;20043;-71
2022/12/12 14:19:57;;;;;;;24.23;12.87;;;;;;;-0.29;100.00;101216.78;10512121;28;20044;-71
2022/12/12 14:25:13;;;;;;;23.03;12.23;;;;;;;-0.33;100.00;101234.41;10562382;28;20040;-71
2022/12/12 14:30:17;;;;;;;17.57;9.67;;;;;;;-0.50;100.00;101236.28;10575336;28;20481;-72
2022/12/12 14:35:41;;;;;;;22.23;11.90;;;;;;;-0.71;100.00;101230.59;10584936;27;20277;-72
2022/12/12 14:40:46;;;;;;;20.60;11.90;;;;;;;-0.95;100.00;101234.16;10566926;27;20134;-71
2022/12/12 14:45:49;;;;;;;23.97;11.77;;;;;;;-1.14;100.00;101246.16;10581356;27;20047;-72
2022/12/12 14:50:52;;;;;;;23.53;11.80;;;;;;;-1.35;100.00;101242.09;10580923;27;20055;-71
2022/12/12 14:55:58;;;;;;;22.10;12.10;;;;;;;-1.53;100.00;101234.16;10565757;27;20031;-73
2022/12/12 15:01:00;;;;;;;23.97;12.73;;;;;;;-1.55;100.00;101243.41;10562838;28;20055;-72
2022/12/12 15:06:19;;;;;;;24.20;12.47;;;;;;;-1.79;100.00;101255.00;10564570;27;20541;-71
2022/12/12 15:11:22;;;;;;;27.27;13.67;;;;;;;-1.99;100.00;101265.22;10582638;27;20027;-73
2022/12/12 15:16:39;;;;;;;24.50;12.63;;;;;;;-2.26;100.00;101248.22;10537404;28;20479;-73
2022/12/12 15:21:41;;;;;;;25.87;13.47;;;;;;;-2.44;100.00;101253.69;10535520;28;20085;-72
2022/12/12 15:26:43;;;;;;;24.73;12.77;;;;;;;-2.48;100.00;101276.56;10502848;28;20492;-73
2022/12/12 15:31:45;;;;;;;24.60;13.27;;;;;;;-2.69;100.00;101248.16;10522858;28;20044;-73
2022/12/12 15:36:45;;;;;;;25.83;14.03;;;;;;;-2.75;100.00;101261.41;10534282;28;20058;-72
2022/12/12 15:41:46;;;;;;;33.23;16.33;;;;;;;-2.90;100.00;101258.44;10557027;27;20044;-73
2022/12/12 15:46:47;;;;;;;30.70;14.33;;;;;;;-2.98;100.00;101259.22;10556826;28;20066;-73
2022/12/12 15:51:47;;;;;;;27.90;14.33;;;;;;;-3.25;100.00;101247.53;10548400;27;20091;-72
2022/12/12 15:56:48;;;;;;;32.63;14.87;;;;;;;-3.28;100.00;101252.41;10583310;28;20054;-73
2022/12/12 16:01:49;;;;;;;35.60;16.30;;;;;;;-3.26;100.00;101271.97;10565241;27;20204;-73
2022/12/12 16:06:50;;;;;;;36.57;17.73;;;;;;;-3.31;100.00;101275.13;10536539;28;20438;-73
2022/12/12 16:11:54;;;;;;;34.27;15.93;;;;;;;-3.40;100.00;101275.19;10517979;28;20043;-74
2022/12/12 16:17:04;;;;;;;33.70;16.03;;;;;;;-3.52;100.00;101278.06;10558147;27;20108;-73
2022/12/12 16:22:34;;;;;;;41.10;18.50;;;;;;;-3.55;100.00;101281.09;10559466;27;20032;-73
2022/12/12 16:27:34;;;;;;;38.93;17.70;;;;;;;-3.62;100.00;101285.38;10560002;28;20038;-73
2022/12/12 16:32:35;;;;;;;44.70;18.67;;;;;;;-3.72;100.00;101271.13;10581310;27;20051;-73
2022/12/12 16:37:35;;;;;;;39.07;18.70;;;;;;;-3.78;100.00;101277.97;10548117;27;20556;-73
2022/12/12 16:42:36;;;;;;;42.70;20.37;;;;;;;-3.93;100.00;101249.88;10544058;27;20043;-73
2022/12/12 16:47:36;;;;;;;36.23;18.30;;;;;;;-3.85;100.00;101268.81;10578503;27;20059;-73
2022/12/12 16:52:37;;;;;;;38.87;19.77;;;;;;;-4.01;100.00;101250.66;10574802;27;20028;-73
2022/12/12 16:57:37;;;;;;;42.50;20.07;;;;;;;-3.99;100.00;101267.50;10577789;28;20043;-73
2022/12/12 17:02:38;;;;;;;47.50;21.63;;;;;;;-4.08;100.00;101266.50;10561184;28;20031;-73
2022/12/12 17:07:38;;;;;;;44.33;20.50;;;;;;;-4.16;100.00;101263.72;10579189;28;20035;-74
2022/12/12 17:12:39;;;;;;;45.90;21.07;;;;;;;-4.15;100.00;101265.44;10560343;28;20050;-73
2022/12/12 17:17:39;;;;;;;43.90;21.73;;;;;;;-4.12;100.00;101281.25;10574939;27;20055;-74
2022/12/12 17:22:40;;;;;;;43.83;19.70;;;;;;;-4.10;100.00;101281.13;10571052;27;20031;-74
2022/12/12 17:27:41;;;;;;;43.20;19.43;;;;;;;-4.22;100.00;101274.22;10575806;28;20044;-73
2022/12/12 17:32:41;;;;;;;49.37;23.30;;;;;;;-4.20;100.00;101294.59;10529573;28;20046;-73
2022/12/12 17:37:41;;;;;;;46.50;20.07;;;;;;;-4.28;100.00;101284.59;10575291;28;20088;-74
2022/12/12 17:42:42;;;;;;;46.87;19.80;;;;;;;-4.40;100.00;101272.34;10552289;28;20036;-73
2022/12/12 17:47:42;;;;;;;45.60;20.73;;;;;;;-4.46;100.00;101263.00;10557439;28;20036;-74
2022/12/12 17:52:43;;;;;;;51.70;22.13;;;;;;;-4.51;100.00;101262.59;10559784;28;20055;-73
2022/12/12 17:57:43;;;;;;;54.07;23.30;;;;;;;-4.51;100.00;101275.19;10575195;28;20036;-73
2022/12/12 18:02:44;;;;;;;48.77;22.63;;;;;;;-4.51;100.00;101285.94;10556986;28;20051;-73
2022/12/12 18:07:45;;;;;;;57.77;23.03;;;;;;;-4.68;100.00;101268.72;10591351;27;20035;-73
2022/12/12 18:12:45;;;;;;;58.30;24.57;;;;;;;-4.63;100.00;101287.09;10607099;27;20035;-72
2022/12/12 18:17:46;;;;;;;52.93;23.83;;;;;;;-4.67;100.00;101282.03;10590867;27;20040;-72
2022/12/12 18:22:46;;;;;;;55.47;23.67;;;;;;;-4.68;100.00;101280.31;10588275;27;20035;-73
2022/12/12 18:27:47;;;;;;;53.37;23.73;;;;;;;-4.68;100.00;101280.31;10583362;27;20035;-74
2022/12/12 18:32:48;;;;;;;56.03;23.97;;;;;;;-5.15;100.00;101194.31;10588793;27;20053;-73
2022/12/12 18:37:49;;;;;;;59.60;25.03;;;;;;;-4.59;100.00;101275.91;10588003;27;20055;-73
2022/12/12 18:42:49;;;;;;;59.23;25.80;;;;;;;-4.47;100.00;101276.59;10596342;27;20031;-71
2022/12/12 18:47:50;;;;;;;60.63;27.03;;;;;;;-4.62;100.00;101245.81;10609797;27;20081;-73
2022/12/12 18:52:50;;;;;;;64.30;26.77;;;;;;;-4.57;100.00;101265.00;10540125;27;20046;-73
2022/12/12 18:57:51;;;;;;;64.80;27.73;;;;;;;-4.39;100.00;101283.91;10573373;27;20039;-73
2022/12/12 19:02:51;;;;;;;66.73;26.30;;;;;;;-4.30;100.00;101280.34;10537999;27;20061;-73
2022/12/12 19:07:52;;;;;;;60.33;28.93;;;;;;;-4.44;100.00;101260.19;10578294;27;20042;-73
2022/12/12 19:12:52;;;;;;;66.40;25.43;;;;;;;-4.51;100.00;101269.81;10571065;27;20035;-72
2022/12/12 19:17:54;;;;;;;61.27;27.23;;;;;;;-4.54;100.00;101275.50;10623849;27;20027;-73
2022/12/12 19:22:55;;;;;;;58.33;27.93;;;;;;;-4.75;100.00;101263.09;10620789;27;20096;-72
2022/12/12 19:27:56;;;;;;;63.87;26.70;;;;;;;-4.79;100.00;101276.97;10625040;27;20043;-73
2022/12/12 19:32:57;;;;;;;69.43;27.23;;;;;;;-4.92;100.00;101267.38;10582722;27;20042;-73
2022/12/12 19:37:57;;;;;;;67.37;27.60;;;;;;;-4.89;100.00;101283.19;10589591;27;20039;-73
2022/12/12 19:42:58;;;;;;;62.90;28.03;;;;;;;-4.79;100.00;101277.81;10605805;27;20053;-71
2022/12/12 19:48:00;;;;;;;69.93;31.17;;;;;;;-4.59;100.00;101277.75;10623525;27;20491;-73
2022/12/12 19:53:00;;;;;;;79.80;30.40;;;;;;;-4.38;100.00;101290.97;10598799;27;20401;-73
2022/12/12 19:58:02;;;;;;;70.47;30.30;;;;;;;-4.20;100.00;101294.59;10586930;27;20307;-73
2022/12/12 20:03:03;;;;;;;70.27;30.17;;;;;;;-4.04;100.00;101295.81;10588731;27;20027;-72
2022/12/12 20:08:05;;;;;;;69.03;30.70;;;;;;;-3.97;100.00;101281.63;10619270;27;20031;-73
2022/12/12 20:13:05;;;;;;;78.17;31.60;;;;;;;-3.80;100.00;101295.25;10613641;27;20046;-73
2022/12/12 20:18:06;;;;;;;75.73;32.93;;;;;;;-3.67;100.00;101295.75;10585519;27;20062;-71
2022/12/12 20:23:07;;;;;;;81.10;33.43;;;;;;;-3.56;100.00;101295.53;10616598;27;20031;-72
2022/12/12 20:28:08;;;;;;;73.63;31.93;;;;;;;-3.50;100.00;101303.00;10618925;27;20092;-72
2022/12/12 20:33:09;;;;;;;76.90;32.73;;;;;;;-3.62;100.00;101277.28;10590681;27;20552;-72
2022/12/12 20:38:10;;;;;;;69.40;31.93;;;;;;;-3.76;100.00;101292.13;10620443;27;20046;-74
2022/12/12 20:43:10;;;;;;;72.50;32.53;;;;;;;-3.97;100.00;101310.34;10596459;27;20169;-73
2022/12/12 20:48:12;;;;;;;71.40;32.60;;;;;;;-4.14;100.00;101283.25;10619198;27;20091;-72
2022/12/12 20:53:12;;;;;;;82.50;34.03;;;;;;;-4.40;100.00;101272.34;10616695;27;20039;-73
2022/12/12 20:58:13;;;;;;;78.13;34.73;;;;;;;-4.46;100.00;101291.72;10583764;27;20515;-72
2022/12/12 21:03:13;;;;;;;79.87;35.47;;;;;;;-4.60;100.00;101292.19;10579165;27;20044;-73
2022/12/12 21:08:14;;;;;;;85.90;36.30;;;;;;;-4.70;100.00;101300.25;10547251;27;20031;-72
2022/12/12 21:13:14;;;;;;;82.27;37.37;;;;;;;-4.80;100.00;101299.44;10594030;27;20036;-73
2022/12/12 21:18:15;;;;;;;90.27;37.57;;;;;;;-4.87;100.00;101307.22;10570620;27;20047;-72
2022/12/12 21:23:19;;;;;;;84.83;36.73;;;;;;;-5.01;100.00;101294.22;10579708;28;20024;-73
2022/12/12 21:28:20;;;;;;;80.43;35.83;;;;;;;-5.04;100.00;101305.22;10621469;27;20031;-73
2022/12/12 21:33:20;;;;;;;89.83;35.70;;;;;;;-5.13;100.00;101309.63;10621944;27;20467;-72
2022/12/12 21:38:21;;;;;;;98.80;37.97;;;;;;;-5.20;100.00;101295.91;10587098;27;20080;-72
2022/12/12 21:43:22;;;;;;;86.70;36.33;;;;;;;-5.22;100.00;101295.22;10608216;27;20043;-73
2022/12/12 21:48:23;;;;;;;84.77;35.43;;;;;;;-5.32;100.00;101291.69;10595121;27;20042;-73
2022/12/12 21:53:32;;;;;;;80.80;33.53;;;;;;;-5.33;100.00;101290.00;10613298;27;20027;-73
2022/12/12 21:58:33;;;;;;;86.77;33.30;;;;;;;-5.41;100.00;101285.31;10614092;27;20042;-72
2022/12/12 22:03:34;;;;;;;95.07;35.17;;;;;;;-5.36;100.00;101290.25;10598008;27;20043;-73
2022/12/12 22:08:34;;;;;;;83.90;33.67;;;;;;;-5.41;100.00;101287.16;10553570;27;20059;-72
2022/12/12 22:13:36;;;;;;;88.87;36.93;;;;;;;-5.56;100.00;101279.53;10580896;27;20077;-71
2022/12/12 22:18:36;;;;;;;90.13;35.97;;;;;;;-5.61;100.00;101292.50;10576657;27;20031;-73
2022/12/12 22:23:38;;;;;;;97.23;37.10;;;;;;;-5.57;100.00;101304.66;10607937;27;20023;-72
2022/12/12 22:28:38;;;;;;;84.93;35.13;;;;;;;-5.70;100.00;101278.09;10597570;27;20049;-71
2022/12/12 22:33:39;;;;;;;81.03;33.83;;;;;;;-5.67;100.00;101293.88;10628342;27;20032;-71
2022/12/12 22:38:39;;;;;;;83.43;36.90;;;;;;;-5.82;100.00;101267.63;10602296;27;20055;-73
2022/12/12 22:43:40;;;;;;;95.07;35.70;;;;;;;-5.74;100.00;101281.19;10604748;27;20043;-71
2022/12/12 22:48:45;;;;;;;91.13;34.80;;;;;;;-5.75;100.00;101280.31;10585712;27;20096;-73